createdAt,value
2023-03-29T00:01:35.491Z,101589.38
2023-03-29T00:04:04.339Z,101577.75
2023-03-29T00:06:33.306Z,101576.00
2023-03-29T00:09:00.315Z,101567.06
2023-03-29T00:11:27.416Z,101577.78
2023-03-29T00:13:54.238Z,101556.38
2023-03-29T00:16:21.167Z,101574.19
2023-03-29T00:18:47.842Z,101563.50
2023-03-29T00:21:14.396Z,101563.47
2023-03-29T00:23:41.100Z,101563.50
2023-03-29T00:26:09.697Z,101567.06
2023-03-29T00:28:36.405Z,101574.19
2023-03-29T00:31:14.582Z,101549.25
2023-03-29T00:33:41.657Z,101550.13
2023-03-29T00:36:13.273Z,101544.78
2023-03-29T00:38:40.364Z,101531.44
2023-03-29T00:41:07.954Z,101534.97
2023-03-29T00:43:56.022Z,101530.53
2023-03-29T00:46:23.254Z,101525.19
2023-03-29T00:48:53.926Z,101516.28
2023-03-29T00:51:21.732Z,101517.19
2023-03-29T00:53:51.190Z,101518.06
2023-03-29T00:56:21.679Z,101513.63
2023-03-29T00:59:12.365Z,101513.63
2023-03-29T01:01:54.366Z,101501.13
2023-03-29T01:04:29.371Z,101498.44
2023-03-29T01:07:00.669Z,101497.56
2023-03-29T01:09:30.333Z,101499.34
2023-03-29T01:12:01.010Z,101493.13
2023-03-29T01:14:35.960Z,101488.59
2023-03-29T01:17:15.561Z,101494.00
2023-03-29T01:19:50.183Z,101488.59
2023-03-29T01:22:38.874Z,101485.06
2023-03-29T01:25:32.223Z,101483.25
2023-03-29T01:28:04.770Z,101484.16
2023-03-29T01:30:41.766Z,101483.28
2023-03-29T01:33:51.081Z,101485.03
2023-03-29T01:36:19.503Z,101477.91
2023-03-29T01:38:56.221Z,101470.81
2023-03-29T01:41:26.705Z,101472.56
2023-03-29T01:44:00.914Z,101461.91
2023-03-29T01:46:35.489Z,101465.44
2023-03-29T01:49:12.452Z,101463.69
2023-03-29T01:51:43.806Z,101464.56
2023-03-29T01:54:28.591Z,101459.22
2023-03-29T01:56:57.031Z,101454.78
2023-03-29T01:59:28.266Z,101454.75
2023-03-29T02:01:59.701Z,101460.09
2023-03-29T02:04:31.456Z,101454.75
2023-03-29T02:06:59.444Z,101449.41
2023-03-29T02:09:27.029Z,101446.72
2023-03-29T02:11:53.938Z,101441.41
2023-03-29T02:14:21.261Z,101440.50
2023-03-29T02:16:49.635Z,101436.94
2023-03-29T02:19:19.233Z,101429.81
2023-03-29T02:21:53.386Z,101433.41
2023-03-29T02:24:21.859Z,101422.69
2023-03-29T02:26:48.873Z,101417.34
2023-03-29T02:29:16.309Z,101422.69
2023-03-29T02:31:45.640Z,101419.13
2023-03-29T02:34:27.323Z,101419.13
2023-03-29T02:36:58.767Z,101412.00
2023-03-29T02:39:26.743Z,101406.66
2023-03-29T02:41:54.023Z,101404.88
2023-03-29T02:44:23.722Z,101395.97
2023-03-29T02:46:52.882Z,101399.56
2023-03-29T02:49:19.601Z,101400.44
2023-03-29T02:51:47.536Z,101390.66
2023-03-29T02:54:18.497Z,101383.50
2023-03-29T02:57:01.765Z,101380.88
2023-03-29T02:59:29.974Z,101377.28
2023-03-29T03:01:56.766Z,101386.19
2023-03-29T03:04:23.445Z,101380.84
2023-03-29T03:06:50.111Z,101381.72
2023-03-29T03:09:16.814Z,101367.50
2023-03-29T03:11:44.984Z,101369.28
2023-03-29T03:14:11.583Z,101371.94
2023-03-29T03:16:38.686Z,101361.25
2023-03-29T03:19:07.497Z,101361.25
2023-03-29T03:21:35.185Z,101356.81
2023-03-29T03:24:02.039Z,101354.13
2023-03-29T03:26:31.171Z,101345.25
2023-03-29T03:28:58.310Z,101358.59
2023-03-29T03:31:25.234Z,101356.81
2023-03-29T03:33:52.895Z,101346.13
2023-03-29T03:36:21.038Z,101344.34
2023-03-29T03:38:47.720Z,101344.34
2023-03-29T03:41:14.267Z,101340.78
2023-03-29T03:43:42.466Z,101337.22
2023-03-29T03:46:09.329Z,101341.69
2023-03-29T03:48:37.255Z,101332.78
2023-03-29T03:51:04.831Z,101336.34
2023-03-29T03:53:31.632Z,101330.09
2023-03-29T03:55:58.957Z,101330.13
2023-03-29T03:58:26.016Z,101329.22
2023-03-29T04:00:52.645Z,101324.75
2023-03-29T04:03:19.480Z,101321.19
2023-03-29T04:05:46.779Z,101328.31
2023-03-29T04:08:14.887Z,101317.63
2023-03-29T04:10:43.224Z,101317.66
2023-03-29T04:13:09.810Z,101316.78
2023-03-29T04:15:38.661Z,101319.44
2023-03-29T04:18:08.678Z,101317.63
2023-03-29T04:20:35.324Z,101316.75
2023-03-29T04:23:01.946Z,101310.53
2023-03-29T04:25:28.909Z,101307.84
2023-03-29T04:27:56.051Z,101313.19
2023-03-29T04:30:22.898Z,101304.31
2023-03-29T04:32:49.541Z,101315.88
2023-03-29T04:35:16.202Z,101313.22
2023-03-29T04:37:42.820Z,101304.28
2023-03-29T04:40:10.140Z,101299.84
2023-03-29T04:42:37.495Z,101301.63
2023-03-29T04:45:06.968Z,101305.19
2023-03-29T04:47:36.346Z,101296.31
2023-03-29T04:50:03.426Z,101292.72
2023-03-29T04:52:33.126Z,101297.16
2023-03-29T04:55:01.497Z,101291.84
2023-03-29T04:57:28.651Z,101294.50
2023-03-29T04:59:55.287Z,101295.38
2023-03-29T05:02:22.047Z,101298.06
2023-03-29T05:04:48.717Z,101292.72
2023-03-29T05:07:17.665Z,101296.28
2023-03-29T05:09:44.397Z,101290.06
2023-03-29T05:12:11.114Z,101285.63
2023-03-29T05:14:37.660Z,101287.41
2023-03-29T05:17:06.562Z,101283.84
2023-03-29T05:19:33.680Z,101286.50
2023-03-29T05:22:00.811Z,101289.19
2023-03-29T05:24:27.470Z,101291.81
2023-03-29T05:26:54.043Z,101297.19
2023-03-29T05:29:20.681Z,101298.94
2023-03-29T05:31:47.338Z,101297.19
2023-03-29T05:34:14.042Z,101289.16
2023-03-29T05:36:40.706Z,101286.50
2023-03-29T05:39:07.448Z,101290.06
2023-03-29T05:41:34.588Z,101284.72
2023-03-29T05:44:01.704Z,101298.06
2023-03-29T05:46:28.551Z,101296.28
2023-03-29T05:48:55.106Z,101292.75
2023-03-29T05:51:24.464Z,101290.94
2023-03-29T05:53:52.090Z,101296.28
2023-03-29T05:56:19.205Z,101285.59
2023-03-29T05:58:49.344Z,101297.16
2023-03-29T06:01:18.028Z,101293.63
2023-03-29T06:03:46.246Z,101287.38
2023-03-29T06:06:16.614Z,101296.28
2023-03-29T06:08:43.951Z,101290.94
2023-03-29T06:11:11.968Z,101294.50
2023-03-29T06:13:42.925Z,101287.38
2023-03-29T06:16:10.998Z,101295.38
2023-03-29T06:18:41.531Z,101285.53
2023-03-29T06:21:09.402Z,101294.44
2023-03-29T06:23:36.504Z,101298.06
2023-03-29T06:26:03.746Z,101302.50
2023-03-29T06:28:30.647Z,101297.13
2023-03-29T06:31:02.386Z,101299.78
2023-03-29T06:33:30.639Z,101296.22
2023-03-29T06:35:57.710Z,101294.44
2023-03-29T06:38:28.342Z,101298.91
2023-03-29T06:41:03.640Z,101298.00
2023-03-29T06:43:31.730Z,101292.66
2023-03-29T06:45:58.719Z,101280.19
2023-03-29T06:48:25.423Z,101280.19
2023-03-29T06:50:53.523Z,101284.63
2023-03-29T06:53:20.872Z,101278.41
2023-03-29T06:55:47.726Z,101276.63
2023-03-29T06:58:15.473Z,101281.97
2023-03-29T07:00:42.496Z,101294.44
2023-03-29T07:03:13.366Z,101289.09
2023-03-29T07:05:44.925Z,101293.56
2023-03-29T07:08:13.840Z,101274.84
2023-03-29T07:10:42.809Z,101273.94
2023-03-29T07:13:13.256Z,101278.38
2023-03-29T07:15:41.530Z,101290.84
2023-03-29T07:18:09.486Z,101290.88
2023-03-29T07:20:38.362Z,101287.31
2023-03-29T07:23:05.919Z,101281.94
2023-03-29T07:25:33.995Z,101301.50
2023-03-29T07:28:00.724Z,101291.72
2023-03-29T07:30:31.680Z,101284.56
2023-03-29T07:32:59.131Z,101281.91
2023-03-29T07:35:26.918Z,101279.25
2023-03-29T07:37:55.710Z,101281.91
2023-03-29T07:40:25.190Z,101281.91
2023-03-29T07:42:54.264Z,101281.00
2023-03-29T07:45:26.750Z,101276.50
2023-03-29T07:47:57.091Z,101279.19
2023-03-29T07:50:24.037Z,101287.22
2023-03-29T07:52:51.052Z,101281.84
2023-03-29T07:55:17.725Z,101284.53
2023-03-29T07:57:44.541Z,101282.72
2023-03-29T08:00:16.827Z,101299.69
2023-03-29T08:02:44.790Z,101296.06
2023-03-29T08:05:18.969Z,101288.03
2023-03-29T08:07:50.564Z,101293.38
2023-03-29T08:10:19.043Z,101296.94
2023-03-29T08:12:47.439Z,101300.53
2023-03-29T08:15:14.796Z,101303.22
2023-03-29T08:17:42.970Z,101305.00
2023-03-29T08:20:12.131Z,101310.34
2023-03-29T08:22:39.148Z,101308.59
2023-03-29T08:25:10.056Z,101287.19
2023-03-29T08:27:37.719Z,101285.41
2023-03-29T08:30:09.436Z,101291.63
2023-03-29T08:32:36.994Z,101290.72
2023-03-29T08:35:04.716Z,101287.19
2023-03-29T08:37:31.901Z,101284.53
2023-03-29T08:39:58.598Z,101285.44
2023-03-29T08:42:49.156Z,101288.09
2023-03-29T08:45:33.867Z,101290.78
2023-03-29T08:48:28.589Z,101274.75
2023-03-29T08:51:00.654Z,101271.19
2023-03-29T08:53:41.807Z,101272.09
2023-03-29T08:56:12.785Z,101276.53
2023-03-29T08:58:39.647Z,101273.84
2023-03-29T09:01:09.170Z,101258.72
2023-03-29T09:03:41.644Z,101255.09
2023-03-29T09:06:12.848Z,101260.47
2023-03-29T09:08:47.645Z,101255.06
2023-03-29T09:11:24.970Z,101246.19
2023-03-29T09:14:27.860Z,101250.59
2023-03-29T09:16:57.091Z,101251.50
2023-03-29T09:19:34.511Z,101245.25
2023-03-29T09:22:18.681Z,101246.16
2023-03-29T09:25:11.095Z,101244.38
2023-03-29T09:27:45.094Z,101230.06
2023-03-29T09:30:34.661Z,101239.00
2023-03-29T09:33:04.772Z,101232.75
2023-03-29T09:35:39.299Z,101249.69
2023-03-29T09:38:10.065Z,101236.31
2023-03-29T09:40:49.498Z,101255.03
2023-03-29T09:43:18.693Z,101244.38
2023-03-29T09:45:51.670Z,101247.94
2023-03-29T09:48:19.359Z,101249.69
2023-03-29T09:50:47.776Z,101249.69
2023-03-29T09:53:15.347Z,101256.81
2023-03-29T09:55:43.134Z,101251.47
2023-03-29T09:58:18.342Z,101246.09
2023-03-29T10:00:45.976Z,101255.91
2023-03-29T10:03:25.893Z,101253.22
2023-03-29T10:05:54.502Z,101254.13
2023-03-29T10:08:27.098Z,101260.38
2023-03-29T10:10:54.525Z,101260.41
2023-03-29T10:13:27.204Z,101269.34
2023-03-29T10:16:18.765Z,101260.38
2023-03-29T10:18:45.532Z,101255.03
2023-03-29T10:21:17.365Z,101258.59
2023-03-29T10:23:45.103Z,101265.72
2023-03-29T10:26:21.499Z,101266.63
2023-03-29T10:28:48.127Z,101260.38
2023-03-29T10:31:19.371Z,101263.94
2023-03-29T10:33:51.255Z,101256.78
2023-03-29T10:36:18.134Z,101246.09
2023-03-29T10:38:44.902Z,101248.75
2023-03-29T10:41:12.811Z,101253.19
2023-03-29T10:43:51.108Z,101252.31
2023-03-29T10:46:28.683Z,101251.38
2023-03-29T10:49:00.292Z,101246.94
2023-03-29T10:51:30.153Z,101242.47
2023-03-29T10:54:00.823Z,101247.78
2023-03-29T10:56:40.307Z,101254.97
2023-03-29T10:59:24.575Z,101249.56
2023-03-29T11:02:12.980Z,101235.34
2023-03-29T11:04:42.833Z,101241.53
2023-03-29T11:07:14.116Z,101255.84
2023-03-29T11:09:41.024Z,101248.72
2023-03-29T11:12:39.089Z,101249.56
2023-03-29T11:15:11.296Z,101253.09
2023-03-29T11:18:08.732Z,101240.63
2023-03-29T11:21:00.436Z,101235.25
2023-03-29T11:23:46.244Z,101229.91
2023-03-29T11:26:12.915Z,101247.69
2023-03-29T11:28:49.147Z,101240.59
2023-03-29T11:31:28.800Z,101241.47
2023-03-29T11:34:14.291Z,101238.78
2023-03-29T11:36:50.465Z,101240.56
2023-03-29T11:39:45.985Z,101240.59
2023-03-29T11:42:18.832Z,101241.44
2023-03-29T11:44:47.453Z,101244.16
2023-03-29T11:47:17.241Z,101239.69
2023-03-29T11:49:51.794Z,101237.88
2023-03-29T11:52:22.428Z,101243.19
2023-03-29T11:54:52.712Z,101237.84
2023-03-29T11:57:27.312Z,101228.91
2023-03-29T12:00:00.913Z,101230.66
2023-03-29T12:02:40.229Z,101235.13
2023-03-29T12:05:15.433Z,101220.84
2023-03-29T12:07:47.993Z,101229.78
2023-03-29T12:10:19.026Z,101224.44
2023-03-29T12:12:46.527Z,101211.00
2023-03-29T12:15:20.433Z,101218.97
2023-03-29T12:17:56.831Z,101218.06
2023-03-29T12:20:31.428Z,101208.22
2023-03-29T12:22:58.086Z,101212.66
2023-03-29T12:25:35.047Z,101215.34
2023-03-29T12:28:23.198Z,101204.63
2023-03-29T12:30:50.809Z,101206.34
2023-03-29T12:33:34.899Z,101209.91
2023-03-29T12:36:14.368Z,101209.06
2023-03-29T12:38:45.512Z,101201.91
2023-03-29T12:41:20.122Z,101204.56
2023-03-29T12:43:46.897Z,101208.13
2023-03-29T12:46:23.337Z,101196.53
2023-03-29T12:48:55.560Z,101198.31
2023-03-29T12:51:28.559Z,101196.53
2023-03-29T12:54:28.042Z,101195.63
2023-03-29T12:57:00.340Z,101194.78
2023-03-29T12:59:27.179Z,101200.09
2023-03-29T13:01:59.464Z,101204.53
2023-03-29T13:04:50.090Z,101192.00
2023-03-29T13:07:22.848Z,101192.84
2023-03-29T13:10:24.652Z,101187.47
2023-03-29T13:12:51.397Z,101176.72
2023-03-29T13:15:18.041Z,101175.84
2023-03-29T13:18:13.500Z,101181.22
2023-03-29T13:20:58.643Z,101169.56
2023-03-29T13:23:52.212Z,101180.19
2023-03-29T13:26:41.174Z,101182.00
2023-03-29T13:29:19.831Z,101179.34
2023-03-29T13:32:03.706Z,101170.44
2023-03-29T13:34:39.256Z,101170.47
2023-03-29T13:37:39.593Z,101159.72
2023-03-29T13:40:33.078Z,101165.06
2023-03-29T13:43:21.842Z,101156.09
2023-03-29T13:46:00.758Z,101153.41
2023-03-29T13:48:30.244Z,101152.50
2023-03-29T13:51:06.982Z,101143.63
2023-03-29T13:53:46.150Z,101132.00
2023-03-29T13:56:18.918Z,101144.44
2023-03-29T13:59:03.641Z,101138.19
2023-03-29T14:01:43.608Z,101136.34
2023-03-29T14:04:17.168Z,101136.28
2023-03-29T14:06:44.856Z,101138.09
2023-03-29T14:09:14.388Z,101146.97
2023-03-29T14:11:46.601Z,101140.72
2023-03-29T14:14:15.729Z,101139.81
2023-03-29T14:16:45.780Z,101132.56
2023-03-29T14:19:19.113Z,101134.41
2023-03-29T14:21:52.757Z,101134.41
2023-03-29T14:24:31.878Z,101130.78
2023-03-29T14:26:58.436Z,101114.66
2023-03-29T14:29:30.919Z,101110.22
2023-03-29T14:31:57.527Z,101117.28
2023-03-29T14:34:24.137Z,101115.44
2023-03-29T14:36:54.112Z,101116.34
2023-03-29T14:39:22.186Z,101121.66
2023-03-29T14:41:51.317Z,101101.13
2023-03-29T14:44:19.689Z,101102.00
2023-03-29T14:46:47.105Z,101098.44
2023-03-29T14:49:16.631Z,101104.63
2023-03-29T14:51:44.753Z,101092.97
2023-03-29T14:54:27.577Z,101085.88
2023-03-29T14:56:54.686Z,101084.09
2023-03-29T14:59:41.971Z,101084.09
2023-03-29T15:02:31.853Z,101089.41
2023-03-29T15:05:04.723Z,101085.88
2023-03-29T15:07:33.621Z,101076.03
2023-03-29T15:10:01.474Z,101080.53
2023-03-29T15:12:32.378Z,101075.16
2023-03-29T15:14:59.885Z,101075.16
2023-03-29T15:17:49.546Z,101062.59
2023-03-29T15:20:27.420Z,101066.16
2023-03-29T15:23:10.299Z,101062.56
2023-03-29T15:25:56.947Z,101055.44
2023-03-29T15:28:28.335Z,101060.78
2023-03-29T15:31:11.990Z,101064.38
2023-03-29T15:33:42.054Z,101059.91
2023-03-29T15:36:10.504Z,101058.91
2023-03-29T15:38:44.070Z,101060.69
2023-03-29T15:41:12.377Z,101055.31
2023-03-29T15:43:38.976Z,101051.75
2023-03-29T15:46:05.811Z,101045.47
2023-03-29T15:48:33.829Z,101040.94
2023-03-29T15:51:03.965Z,101033.09
2023-03-29T15:53:32.875Z,101044.63
2023-03-29T15:56:04.013Z,101044.56
2023-03-29T15:58:32.131Z,101046.38
2023-03-29T16:01:38.960Z,101035.59
2023-03-29T16:04:31.973Z,101032.94
2023-03-29T16:06:58.650Z,101026.75
2023-03-29T16:09:25.834Z,101011.56
2023-03-29T16:11:52.374Z,101008.97
2023-03-29T16:14:25.316Z,101008.88
2023-03-29T16:16:52.471Z,101003.59
2023-03-29T16:19:19.432Z,101011.53
2023-03-29T16:21:46.061Z,101012.44
2023-03-29T16:24:19.577Z,101007.97
2023-03-29T16:26:46.626Z,100998.16
2023-03-29T16:29:13.210Z,100987.47
2023-03-29T16:31:40.456Z,100986.56
2023-03-29T16:34:07.626Z,100986.56
2023-03-29T16:36:38.665Z,100979.38
2023-03-29T16:39:05.638Z,100982.03
2023-03-29T16:41:32.618Z,100974.97
2023-03-29T16:43:59.784Z,100973.13
2023-03-29T16:46:26.636Z,100965.16
2023-03-29T16:48:53.794Z,100967.81
2023-03-29T16:51:21.398Z,100958.81
2023-03-29T16:53:49.705Z,100946.28
2023-03-29T16:56:16.553Z,100955.25
2023-03-29T16:58:43.619Z,100957.94
2023-03-29T17:01:15.992Z,100951.69
2023-03-29T17:03:43.301Z,100934.78
2023-03-29T17:06:11.285Z,100940.91
2023-03-29T17:08:38.644Z,100934.66
2023-03-29T17:11:07.644Z,100931.97
2023-03-29T17:13:40.308Z,100934.72
2023-03-29T17:16:09.668Z,100933.81
2023-03-29T17:18:41.991Z,100932.00
2023-03-29T17:21:15.468Z,100940.06
2023-03-29T17:23:42.123Z,100935.59
2023-03-29T17:26:08.945Z,100934.75
2023-03-29T17:28:35.875Z,100933.91
2023-03-29T17:31:09.765Z,100941.84
2023-03-29T17:33:36.520Z,100939.19
2023-03-29T17:36:04.704Z,100937.38
2023-03-29T17:38:33.861Z,100949.94
2023-03-29T17:41:01.198Z,100941.03
2023-03-29T17:43:27.820Z,100935.69
2023-03-29T17:45:55.594Z,100949.97
2023-03-29T17:48:25.172Z,100934.81
2023-03-29T17:50:56.509Z,100950.97
2023-03-29T17:53:23.072Z,100942.94
2023-03-29T17:55:49.657Z,100942.94
2023-03-29T17:58:16.651Z,100944.75
2023-03-29T18:00:43.819Z,100946.50
2023-03-29T18:03:10.703Z,100954.44
2023-03-29T18:05:37.378Z,100948.31
2023-03-29T18:08:03.983Z,100945.66
2023-03-29T18:10:30.636Z,100943.88
2023-03-29T18:12:59.981Z,100946.56
2023-03-29T18:15:26.573Z,100935.84
2023-03-29T18:17:53.295Z,100919.72
2023-03-29T18:20:20.732Z,100932.22
2023-03-29T18:22:47.313Z,100922.41
2023-03-29T18:25:16.220Z,100927.72
2023-03-29T18:27:42.813Z,100916.13
2023-03-29T18:30:09.882Z,100917.94
2023-03-29T18:32:36.784Z,100905.56
2023-03-29T18:35:03.625Z,100897.41
2023-03-29T18:37:30.199Z,100904.53
2023-03-29T18:39:56.941Z,100898.28
2023-03-29T18:42:23.666Z,100900.06
2023-03-29T18:44:51.177Z,100885.78
2023-03-29T18:47:18.367Z,100900.06
2023-03-29T18:49:44.940Z,100895.59
2023-03-29T18:52:11.551Z,100882.19
2023-03-29T18:54:38.648Z,100880.41
2023-03-29T18:57:05.228Z,100873.34
2023-03-29T18:59:31.845Z,100882.22
2023-03-29T19:01:58.420Z,100875.13
2023-03-29T19:04:26.821Z,100869.78
2023-03-29T19:06:54.056Z,100873.34
2023-03-29T19:09:20.632Z,100871.59
2023-03-29T19:11:49.826Z,100873.34
2023-03-29T19:14:17.418Z,100849.19
2023-03-29T19:16:44.111Z,100859.09
2023-03-29T19:19:14.552Z,100867.06
2023-03-29T19:21:41.652Z,100863.53
2023-03-29T19:24:08.352Z,100857.28
2023-03-29T19:26:35.431Z,100859.00
2023-03-29T19:29:01.994Z,100844.72
2023-03-29T19:31:28.669Z,100844.72
2023-03-29T19:33:56.102Z,100834.00
2023-03-29T19:36:22.783Z,100836.75
2023-03-29T19:38:49.390Z,100831.34
2023-03-29T19:41:16.009Z,100823.47
2023-03-29T19:43:42.633Z,100824.25
2023-03-29T19:46:11.589Z,100817.97
2023-03-29T19:48:40.249Z,100816.16
2023-03-29T19:51:07.976Z,100813.44
2023-03-29T19:53:37.143Z,100810.81
2023-03-29T19:56:07.558Z,100816.16
2023-03-29T19:58:34.172Z,100818.97
2023-03-29T20:01:00.827Z,100814.44
2023-03-29T20:03:29.771Z,100805.56
2023-03-29T20:05:56.964Z,100802.88
2023-03-29T20:08:24.796Z,100796.59
2023-03-29T20:11:03.296Z,100788.44
2023-03-29T20:13:38.250Z,100778.56
2023-03-29T20:16:10.586Z,100763.56
2023-03-29T20:18:38.325Z,100767.22
2023-03-29T20:21:06.870Z,100757.38
2023-03-29T20:23:33.915Z,100758.25
2023-03-29T20:26:00.500Z,100755.63
2023-03-29T20:28:27.141Z,100745.84
2023-03-29T20:30:54.050Z,100744.91
2023-03-29T20:33:21.480Z,100748.56
2023-03-29T20:35:49.591Z,100748.50
2023-03-29T20:38:16.200Z,100732.56
2023-03-29T20:40:42.844Z,100729.00
2023-03-29T20:43:18.367Z,100727.19
2023-03-29T20:45:53.381Z,100714.72
2023-03-29T20:48:24.782Z,100713.91
2023-03-29T20:50:51.669Z,100719.28
2023-03-29T20:53:20.363Z,100705.63
2023-03-29T20:55:47.904Z,100695.16
2023-03-29T20:58:15.941Z,100691.66
2023-03-29T21:00:42.856Z,100682.84
2023-03-29T21:03:09.570Z,100671.31
2023-03-29T21:05:36.340Z,100673.22
2023-03-29T21:08:04.473Z,100667.88
2023-03-29T21:10:31.269Z,100663.53
2023-03-29T21:13:02.651Z,100658.09
2023-03-29T21:15:30.677Z,100645.72
2023-03-29T21:17:58.041Z,100644.72
2023-03-29T21:20:24.959Z,100643.94
2023-03-29T21:22:51.699Z,100643.94
2023-03-29T21:25:18.548Z,100635.03
2023-03-29T21:27:47.618Z,100632.50
2023-03-29T21:30:14.229Z,100626.34
2023-03-29T21:32:41.163Z,100626.22
2023-03-29T21:35:08.550Z,100608.34
2023-03-29T21:37:35.126Z,100613.72
2023-03-29T21:40:05.679Z,100606.50
2023-03-29T21:42:33.308Z,100597.56
2023-03-29T21:45:00.048Z,100597.63
2023-03-29T21:47:26.717Z,100605.59
2023-03-29T21:49:53.346Z,100597.69
2023-03-29T21:52:20.230Z,100586.97
2023-03-29T21:54:46.805Z,100583.44
2023-03-29T21:57:13.433Z,100578.16
2023-03-29T21:59:40.255Z,100571.03
2023-03-29T22:02:06.866Z,100558.53
2023-03-29T22:04:37.146Z,100560.34
2023-03-29T22:07:05.297Z,100554.91
2023-03-29T22:09:33.309Z,100551.38
2023-03-29T22:12:01.445Z,100554.91
2023-03-29T22:14:30.217Z,100538.03
2023-03-29T22:16:56.980Z,100535.31
2023-03-29T22:19:23.738Z,100536.34
2023-03-29T22:21:51.344Z,100535.44
2023-03-29T22:24:17.993Z,100534.50
2023-03-29T22:26:48.087Z,100532.63
2023-03-29T22:29:14.634Z,100541.66
2023-03-29T22:31:41.553Z,100535.44
2023-03-29T22:34:08.122Z,100539.03
2023-03-29T22:36:37.710Z,100545.28
2023-03-29T22:39:05.083Z,100555.00
2023-03-29T22:41:31.693Z,100536.38
2023-03-29T22:43:59.432Z,100535.47
2023-03-29T22:46:27.329Z,100532.03
2023-03-29T22:48:53.985Z,100532.84
2023-03-29T22:51:20.955Z,100531.03
2023-03-29T22:53:47.589Z,100535.56
2023-03-29T22:56:15.499Z,100515.91
2023-03-29T22:58:42.195Z,100517.72
2023-03-29T23:01:08.994Z,100504.31
2023-03-29T23:03:36.047Z,100489.25
2023-03-29T23:06:02.714Z,100496.31
2023-03-29T23:08:36.917Z,100503.50
2023-03-29T23:11:04.346Z,100478.50
2023-03-29T23:13:31.177Z,100474.91
2023-03-29T23:15:59.127Z,100474.91
2023-03-29T23:18:27.762Z,100471.31
2023-03-29T23:20:56.648Z,100454.50
2023-03-29T23:23:24.388Z,100453.63
2023-03-29T23:25:52.376Z,100440.22
2023-03-29T23:28:21.655Z,100442.78
2023-03-29T23:31:09.861Z,100441.84
2023-03-29T23:33:40.261Z,100426.78
2023-03-29T23:36:09.986Z,100433.03
2023-03-29T23:38:38.645Z,100424.97
2023-03-29T23:41:08.438Z,100421.50
2023-03-29T23:43:37.243Z,100421.50
2023-03-29T23:46:08.427Z,100426.00
2023-03-29T23:48:34.999Z,100432.22
2023-03-29T23:51:02.404Z,100426.88
2023-03-29T23:53:30.066Z,100423.28
2023-03-29T23:55:58.485Z,100414.44
2023-03-29T23:58:25.081Z,100412.63
